Other Surface Observations
Issued by NWS Great Falls, MT

Home | Current Version | Previous Version | Text Only | Print | Product List | Glossary On
Versions: 1 2 3 4 5 6 7 8 9 10 11 12 13 14 15 16 17 18 19 20 21 22 23 24 25 26 27 28 29 30 31 32 33 34 35 36 37 38 39 40 41 42 43 44 45 46 47 48 49 50
000
SXUS55 KTFX 292324
OSOTFX
AREA AWOS OBSERVATIONS
NATIONAL WEATHER SERVICE GREAT FALLS MT
0520 PM MDT FRI MAY 29 2015

METAR KPWD 292315Z AUTO 34006KT 10SM 14/M02 A3028 RMK PLENTYWOOD
METAR KPO1 292315Z AUTO 36003KT 16/M02 A3028 RMK POPLAR
METAR KS71 292315Z AUTO 09012G19KT 10SM 17/05 A3018 RMK CHINOOK
METAR K6S0 292315Z AUTO 07012G15KT 10SM 13/07 A3023 RMK BIG TIMBER
METAR K79S 292315Z AUTO 08013G17KT 10SM 19/09 A3014 RMK FORT BENTON
METAR K38S 292315Z AUTO 00000KT 10SM 21/07 A3013 RMK DEER LODGE
METAR K3U3 292315Z AUTO 00000KT 10SM 20/07 A3010 RMK ANACONDA
METAR K6S5 292315Z AUTO 34001KT 10SM 23/07 A3002 RMK HAMILTON
METAR KS59 292315Z AUTO 32006KT 10SM 24/10 A2998 RMK LIBBY
METAR K88M 292315Z AUTO 34013G22KT 10SM 18/09 A3005 RMK EUREKA



USA.gov is the U.S. government's official web portal to all federal, state and local government web resources and services.